Time;durP1;ratioP1;P1;durP2;ratioP2;P2;SDS_P1;SDS_P2;PMS_P1;PMS_P2;Temp;Humidity;BMP_temperature;BMP_pressure;BME280_temperature;BME280_humidity;BME280_pressure;Samples;Min_cycle;Max_cycle;Signal;HPM_P1;HPM_P2
2023/01/31 00:01:06;;;;;;;31.73;6.83;;;;;;;;;;5057774;28;20698;-71
2023/01/31 00:03:32;;;;;;;26.77;5.77;;;;;;;;;;5039741;28;20648;-70
2023/01/31 00:05:58;;;;;;;33.57;5.97;;;;;;;;;;5039602;28;20228;-73
2023/01/31 00:08:24;;;;;;;28.37;5.80;;;;;;;;;;5057967;28;20235;-72
2023/01/31 00:10:50;;;;;;;23.30;6.70;;;;;;;;;;5039883;28;20214;-72
2023/01/31 00:13:16;;;;;;;26.87;7.30;;;;;;;;;;5039901;28;20287;-71
2023/01/31 00:15:42;;;;;;;31.60;9.30;;;;;;;;;;5057914;28;20198;-73
2023/01/31 00:18:08;;;;;;;27.27;7.83;;;;;;;;;;5040193;28;20182;-71
2023/01/31 00:20:34;;;;;;;29.50;6.40;;;;;;;;;;5040359;28;20229;-72
2023/01/31 00:23:00;;;;;;;22.33;5.90;;;;;;;;;;5058039;28;20175;-72
2023/01/31 00:25:26;;;;;;;19.30;7.30;;;;;;;;;;5040205;28;20190;-71
2023/01/31 00:27:52;;;;;;;22.80;5.97;;;;;;;;;;5040289;28;20209;-73
2023/01/31 00:30:18;;;;;;;26.10;7.00;;;;;;;;;;5058496;28;20229;-72
2023/01/31 00:32:44;;;;;;;19.47;6.13;;;;;;;;;;5062540;28;20229;-71
2023/01/31 00:35:10;;;;;;;32.40;7.63;;;;;;;;;;5071089;28;20199;-72
2023/01/31 00:37:36;;;;;;;31.83;8.47;;;;;;;;;;5071453;28;20249;-72
2023/01/31 00:40:03;;;;;;;29.17;7.00;;;;;;;;;;5069892;28;20194;-73
2023/01/31 00:42:29;;;;;;;27.80;7.10;;;;;;;;;;5042811;28;20236;-71
2023/01/31 00:44:55;;;;;;;35.67;8.73;;;;;;;;;;5041894;28;20594;-71
2023/01/31 00:47:21;;;;;;;34.57;8.20;;;;;;;;;;5039353;28;20204;-72
2023/01/31 00:49:47;;;;;;;34.53;7.50;;;;;;;;;;5057038;28;20202;-72
2023/01/31 00:52:12;;;;;;;25.40;6.30;;;;;;;;;;5038926;28;20232;-72
2023/01/31 00:54:38;;;;;;;29.80;6.20;;;;;;;;;;5038697;28;20202;-73
2023/01/31 00:57:04;;;;;;;32.63;6.57;;;;;;;;;;5056600;28;20179;-72
2023/01/31 00:59:30;;;;;;;31.20;6.60;;;;;;;;;;5039061;28;20204;-71
2023/01/31 01:01:56;;;;;;;27.17;6.80;;;;;;;;;;5039670;28;20640;-72
2023/01/31 01:04:22;;;;;;;29.07;7.70;;;;;;;;;;5038717;28;20260;-72
2023/01/31 01:06:49;;;;;;;32.33;7.47;;;;;;;;;;5038724;28;20191;-72
2023/01/31 01:09:16;;;;;;;28.40;6.77;;;;;;;;;;5038900;28;20214;-72
2023/01/31 01:11:42;;;;;;;31.57;8.07;;;;;;;;;;5056612;28;20668;-73
2023/01/31 01:14:08;;;;;;;30.20;7.50;;;;;;;;;;5038290;28;20502;-73
2023/01/31 01:16:36;;;;;;;29.67;7.53;;;;;;;;;;5038426;28;20710;-73
2023/01/31 01:19:04;;;;;;;28.13;7.40;;;;;;;;;;5038422;28;20545;-72
2023/01/31 01:21:30;;;;;;;26.37;6.03;;;;;;;;;;5038073;28;20636;-73
2023/01/31 01:23:57;;;;;;;24.23;6.47;;;;;;;;;;5055770;28;20175;-72
2023/01/31 01:26:28;;;;;;;26.40;5.53;;;;;;;;;;5037920;28;20182;-72
2023/01/31 01:28:55;;;;;;;25.33;6.33;;;;;;;;;;5037843;28;20447;-73
2023/01/31 01:31:21;;;;;;;30.33;6.87;;;;;;;;;;5037921;28;20428;-72
2023/01/31 01:33:48;;;;;;;25.77;7.20;;;;;;;;;;5055766;28;20178;-74
2023/01/31 01:36:16;;;;;;;23.00;6.23;;;;;;;;;;5037924;28;20421;-70
2023/01/31 01:38:42;;;;;;;35.57;7.43;;;;;;;;;;5037465;28;20693;-73
2023/01/31 01:41:09;;;;;;;29.77;7.00;;;;;;;;;;5055719;28;20264;-73
2023/01/31 01:43:39;;;;;;;25.10;6.23;;;;;;;;;;5038013;28;20178;-72
2023/01/31 01:46:05;;;;;;;26.07;6.33;;;;;;;;;;5055506;28;20182;-73
2023/01/31 01:48:32;;;;;;;29.33;6.60;;;;;;;;;;5055600;28;20663;-71
2023/01/31 01:50:58;;;;;;;22.47;5.43;;;;;;;;;;5037380;28;20703;-72
2023/01/31 01:53:27;;;;;;;27.30;5.80;;;;;;;;;;5037434;28;20182;-73
2023/01/31 01:55:55;;;;;;;24.83;4.80;;;;;;;;;;5055531;28;20269;-73
2023/01/31 01:58:26;;;;;;;30.50;5.97;;;;;;;;;;5037301;28;20213;-72
2023/01/31 02:00:53;;;;;;;28.13;6.50;;;;;;;;;;5055566;28;20202;-73
2023/01/31 02:03:19;;;;;;;24.13;5.83;;;;;;;;;;5055255;28;20644;-73
2023/01/31 02:05:46;;;;;;;22.70;5.67;;;;;;;;;;5037834;28;20421;-73
2023/01/31 02:08:14;;;;;;;30.00;6.43;;;;;;;;;;5056282;28;20506;-72
2023/01/31 02:10:43;;;;;;;25.27;5.67;;;;;;;;;;5038040;28;20221;-73
2023/01/31 02:13:11;;;;;;;30.37;6.00;;;;;;;;;;5056301;28;20179;-74
2023/01/31 02:15:37;;;;;;;27.43;5.70;;;;;;;;;;5038653;28;20495;-71
2023/01/31 02:18:03;;;;;;;28.73;6.57;;;;;;;;;;5057484;28;20854;-74
2023/01/31 02:20:37;;;;;;;25.83;5.47;;;;;;;;;;5056584;28;20201;-72
2023/01/31 02:23:24;;;;;;;26.83;6.10;;;;;;;;;;5056142;28;20432;-74
2023/01/31 02:26:09;;;;;;;21.77;6.37;;;;;;;;;;5039289;28;20500;-73
2023/01/31 02:28:44;;;;;;;20.60;5.70;;;;;;;;;;5057088;28;20244;-72
2023/01/31 02:31:13;;;;;;;38.13;7.60;;;;;;;;;;5038439;28;20496;-74
2023/01/31 02:34:00;;;;;;;23.93;6.27;;;;;;;;;;5057287;28;20201;-72
2023/01/31 02:36:38;;;;;;;23.13;6.43;;;;;;;;;;5056910;28;20171;-72
2023/01/31 02:39:04;;;;;;;38.67;7.03;;;;;;;;;;5056241;28;20417;-72
2023/01/31 02:41:45;;;;;;;25.97;6.67;;;;;;;;;;5038646;28;20553;-72
2023/01/31 02:46:55;;;;;;;25.03;6.97;;;;;;;;;;5054951;28;20210;-73
2023/01/31 02:49:35;;;;;;;34.00;7.67;;;;;;;;;;5058272;28;20204;-71
2023/01/31 02:52:15;;;;;;;29.97;8.23;;;;;;;;;;5055053;28;20220;-75
2023/01/31 02:57:28;;;;;;;27.50;7.47;;;;;;;;;;5054551;28;20459;-72
2023/01/31 02:59:55;;;;;;;34.03;7.60;;;;;;;;;;5054636;28;20421;-73
2023/01/31 03:02:22;;;;;;;29.50;6.87;;;;;;;;;;5054614;28;20170;-72
2023/01/31 03:04:48;;;;;;;31.67;6.93;;;;;;;;;;5054766;28;20971;-73
2023/01/31 03:07:17;;;;;;;27.93;8.13;;;;;;;;;;5036257;28;20273;-72
2023/01/31 03:09:46;;;;;;;21.77;6.77;;;;;;;;;;5054983;28;20220;-72
2023/01/31 03:12:18;;;;;;;32.97;8.63;;;;;;;;;;5058778;28;20856;-73
2023/01/31 03:14:44;;;;;;;30.70;7.63;;;;;;;;;;5057520;28;20967;-72
2023/01/31 03:17:32;;;;;;;27.83;7.43;;;;;;;;;;5059214;28;20424;-73
2023/01/31 03:20:01;;;;;;;31.10;7.63;;;;;;;;;;5041378;28;20202;-73
2023/01/31 03:22:36;;;;;;;38.43;8.47;;;;;;;;;;5041666;28;20759;-73
2023/01/31 03:25:04;;;;;;;27.37;7.30;;;;;;;;;;5041150;28;20809;-72
2023/01/31 03:27:30;;;;;;;38.50;7.80;;;;;;;;;;5058819;28;20491;-72
2023/01/31 03:30:01;;;;;;;32.03;8.13;;;;;;;;;;5058291;28;20432;-70
2023/01/31 03:32:29;;;;;;;35.57;7.20;;;;;;;;;;5041111;28;20503;-74
2023/01/31 03:34:55;;;;;;;33.03;8.50;;;;;;;;;;5058476;28;21038;-73
2023/01/31 03:37:31;;;;;;;20.43;7.03;;;;;;;;;;5040715;28;20183;-75
2023/01/31 03:40:04;;;;;;;31.43;7.83;;;;;;;;;;5058737;28;20253;-73
2023/01/31 03:42:36;;;;;;;30.00;7.27;;;;;;;;;;5058808;28;20154;-72
2023/01/31 03:45:06;;;;;;;23.10;7.53;;;;;;;;;;5040786;28;20409;-73
2023/01/31 03:47:37;;;;;;;31.83;7.90;;;;;;;;;;5040420;28;20614;-72
2023/01/31 03:50:07;;;;;;;29.00;7.43;;;;;;;;;;5040451;28;20452;-73
2023/01/31 03:52:38;;;;;;;29.00;8.77;;;;;;;;;;5040205;28;20553;-73
2023/01/31 03:55:07;;;;;;;29.87;7.87;;;;;;;;;;5057843;28;20195;-73
2023/01/31 03:57:36;;;;;;;31.87;7.80;;;;;;;;;;5058316;28;20415;-74
2023/01/31 04:00:04;;;;;;;27.77;8.40;;;;;;;;;;5039985;28;20202;-73
2023/01/31 04:02:36;;;;;;;28.57;8.67;;;;;;;;;;5057902;28;20419;-72
2023/01/31 04:05:07;;;;;;;30.33;8.70;;;;;;;;;;5058264;28;20189;-72
2023/01/31 04:07:33;;;;;;;31.23;8.90;;;;;;;;;;5058027;28;20239;-78
2023/01/31 04:09:59;;;;;;;20.63;7.67;;;;;;;;;;5057604;28;20565;-72
2023/01/31 04:12:25;;;;;;;29.50;9.43;;;;;;;;;;5057688;28;20182;-74
2023/01/31 04:14:51;;;;;;;30.07;9.77;;;;;;;;;;5039747;28;20740;-74
2023/01/31 04:17:17;;;;;;;27.20;9.30;;;;;;;;;;5057726;28;20175;-71
2023/01/31 04:19:43;;;;;;;38.17;10.20;;;;;;;;;;5039479;28;20669;-72
2023/01/31 04:22:09;;;;;;;31.87;10.27;;;;;;;;;;5057511;28;20179;-72
2023/01/31 04:24:38;;;;;;;34.73;10.00;;;;;;;;;;5057796;28;20228;-76
2023/01/31 04:27:04;;;;;;;21.30;8.97;;;;;;;;;;5057534;28;20186;-72
2023/01/31 04:29:30;;;;;;;29.23;9.10;;;;;;;;;;5057786;28;20194;-73
2023/01/31 04:31:56;;;;;;;34.30;9.40;;;;;;;;;;5039467;28;20266;-75
2023/01/31 04:34:22;;;;;;;30.07;9.10;;;;;;;;;;5057552;28;20198;-73
2023/01/31 04:36:48;;;;;;;36.60;9.87;;;;;;;;;;5039905;28;20241;-74
2023/01/31 04:39:14;;;;;;;37.13;9.37;;;;;;;;;;5039473;28;20198;-72
2023/01/31 04:41:40;;;;;;;34.43;9.60;;;;;;;;;;5039792;28;20178;-73
2023/01/31 04:44:06;;;;;;;30.37;9.87;;;;;;;;;;5057264;28;20171;-74
2023/01/31 04:46:32;;;;;;;33.63;9.60;;;;;;;;;;5039305;28;20228;-72
2023/01/31 04:48:58;;;;;;;36.33;10.00;;;;;;;;;;5056950;28;20182;-72
2023/01/31 04:51:24;;;;;;;34.00;9.37;;;;;;;;;;5057097;28;20220;-72
2023/01/31 04:53:50;;;;;;;29.40;9.23;;;;;;;;;;5057095;28;20181;-72
2023/01/31 04:56:16;;;;;;;27.97;9.83;;;;;;;;;;5039054;28;20185;-73
2023/01/31 04:58:43;;;;;;;26.63;10.03;;;;;;;;;;5038821;28;20214;-71
2023/01/31 05:01:08;;;;;;;31.73;10.53;;;;;;;;;;5056623;28;20229;-72
2023/01/31 05:03:34;;;;;;;35.70;9.87;;;;;;;;;;5039629;28;20178;-74
2023/01/31 05:06:00;;;;;;;31.60;9.47;;;;;;;;;;5057878;28;20237;-72
2023/01/31 05:08:26;;;;;;;34.40;10.03;;;;;;;;;;5043127;28;20178;-73
2023/01/31 05:11:05;;;;;;;32.27;9.67;;;;;;;;;;5038970;28;20213;-74
2023/01/31 05:13:31;;;;;;;32.73;10.17;;;;;;;;;;5056825;28;20178;-72
2023/01/31 05:15:58;;;;;;;35.57;11.40;;;;;;;;;;5056408;28;20694;-71
2023/01/31 05:18:24;;;;;;;28.53;9.83;;;;;;;;;;5057032;28;20171;-70
2023/01/31 05:20:50;;;;;;;37.27;10.67;;;;;;;;;;5038548;28;20195;-72
2023/01/31 05:23:17;;;;;;;32.60;10.60;;;;;;;;;;5056961;28;20182;-72
2023/01/31 05:25:43;;;;;;;29.20;10.47;;;;;;;;;;5056473;28;20179;-71
2023/01/31 05:28:10;;;;;;;30.47;11.63;;;;;;;;;;5056272;28;20175;-72
2023/01/31 05:30:36;;;;;;;37.23;12.10;;;;;;;;;;5084664;22;20260;-70
2023/01/31 05:33:02;;;;;;;34.13;11.50;;;;;;;;;;5075704;28;20178;-68
2023/01/31 05:35:28;;;;;;;36.57;10.70;;;;;;;;;;5076386;28;20757;-70
2023/01/31 05:37:54;;;;;;;26.73;10.30;;;;;;;;;;5076126;28;20236;-69
2023/01/31 05:40:21;;;;;;;32.53;11.20;;;;;;;;;;5075565;28;20226;-70
2023/01/31 05:42:50;;;;;;;36.27;10.73;;;;;;;;;;5074590;28;20170;-70
2023/01/31 05:45:16;;;;;;;35.13;11.53;;;;;;;;;;5075443;28;20723;-70
2023/01/31 05:47:42;;;;;;;42.30;11.87;;;;;;;;;;5075734;28;20440;-70
2023/01/31 05:50:08;;;;;;;40.90;13.23;;;;;;;;;;5075590;28;20251;-69
2023/01/31 05:52:34;;;;;;;31.10;10.90;;;;;;;;;;5075411;28;20681;-70
2023/01/31 05:55:00;;;;;;;32.40;11.03;;;;;;;;;;5074967;28;20678;-70
2023/01/31 05:57:26;;;;;;;35.70;11.77;;;;;;;;;;5073986;28;21027;-71
2023/01/31 05:59:52;;;;;;;26.07;10.80;;;;;;;;;;5074999;28;20181;-70
2023/01/31 06:02:18;;;;;;;40.57;11.87;;;;;;;;;;5074251;28;20198;-70
2023/01/31 06:04:44;;;;;;;33.17;12.13;;;;;;;;;;5073986;28;20210;-68
2023/01/31 06:07:10;;;;;;;30.17;11.43;;;;;;;;;;5074906;28;20256;-69
2023/01/31 06:09:37;;;;;;;36.97;13.30;;;;;;;;;;5075353;28;20178;-71
2023/01/31 06:12:04;;;;;;;27.43;11.10;;;;;;;;;;5075438;28;20613;-71
2023/01/31 06:14:31;;;;;;;36.33;12.53;;;;;;;;;;5073676;28;20209;-69
2023/01/31 06:16:57;;;;;;;41.63;12.97;;;;;;;;;;5073373;28;20189;-69
2023/01/31 06:19:24;;;;;;;33.27;13.30;;;;;;;;;;5073189;28;20173;-70
2023/01/31 06:21:50;;;;;;;38.90;12.53;;;;;;;;;;5074284;28;20194;-68
2023/01/31 06:24:16;;;;;;;37.40;12.23;;;;;;;;;;5074442;28;20248;-70
2023/01/31 06:26:42;;;;;;;37.07;12.00;;;;;;;;;;5073582;28;20181;-69
2023/01/31 06:29:08;;;;;;;24.17;10.80;;;;;;;;;;5075061;28;20251;-70
2023/01/31 06:31:34;;;;;;;29.43;11.70;;;;;;;;;;5075417;28;20221;-70
2023/01/31 06:34:00;;;;;;;34.43;12.27;;;;;;;;;;5075271;28;20185;-70
2023/01/31 06:36:26;;;;;;;32.83;12.17;;;;;;;;;;5075261;28;20631;-69
2023/01/31 06:38:52;;;;;;;32.73;11.10;;;;;;;;;;5075384;28;20685;-70
2023/01/31 06:41:19;;;;;;;32.47;11.67;;;;;;;;;;5075349;28;20197;-70
2023/01/31 06:43:45;;;;;;;32.00;12.10;;;;;;;;;;5075269;28;20658;-70
2023/01/31 06:46:11;;;;;;;31.27;12.60;;;;;;;;;;5073932;28;20186;-70
2023/01/31 06:48:37;;;;;;;28.70;11.57;;;;;;;;;;5074042;28;20185;-69
2023/01/31 06:51:03;;;;;;;35.23;11.03;;;;;;;;;;5075014;28;20197;-70
2023/01/31 06:53:29;;;;;;;26.17;10.37;;;;;;;;;;5075186;28;20205;-70
2023/01/31 06:55:54;;;;;;;32.30;10.80;;;;;;;;;;5074163;28;20255;-68
2023/01/31 06:58:20;;;;;;;30.27;10.33;;;;;;;;;;5075769;28;20177;-71
2023/01/31 07:00:46;;;;;;;36.17;11.87;;;;;;;;;;5074997;28;20201;-70
2023/01/31 07:03:12;;;;;;;30.50;10.57;;;;;;;;;;5075049;28;20177;-71
2023/01/31 07:05:38;;;;;;;33.17;11.07;;;;;;;;;;5073417;28;20182;-70
2023/01/31 07:08:04;;;;;;;26.13;11.50;;;;;;;;;;5074822;28;20186;-70
2023/01/31 07:10:30;;;;;;;24.60;10.57;;;;;;;;;;5075771;28;20629;-70
2023/01/31 07:12:56;;;;;;;26.20;10.20;;;;;;;;;;5074912;28;20178;-69
2023/01/31 07:15:22;;;;;;;31.87;11.07;;;;;;;;;;5073449;28;20205;-69
2023/01/31 07:17:48;;;;;;;23.53;11.30;;;;;;;;;;5073438;28;20184;-70
2023/01/31 07:20:14;;;;;;;25.47;10.27;;;;;;;;;;5073727;28;20192;-69
2023/01/31 07:22:40;;;;;;;30.13;13.00;;;;;;;;;;5075066;28;20174;-70
2023/01/31 07:25:06;;;;;;;28.67;13.50;;;;;;;;;;5075234;28;20177;-70
2023/01/31 07:27:32;;;;;;;24.70;10.37;;;;;;;;;;5073508;28;20662;-70
2023/01/31 07:29:58;;;;;;;26.73;11.63;;;;;;;;;;5075117;28;20181;-70
2023/01/31 07:32:27;;;;;;;26.53;11.00;;;;;;;;;;5076067;28;20222;-69
2023/01/31 07:34:53;;;;;;;31.63;13.07;;;;;;;;;;5081257;28;20610;-70
2023/01/31 07:37:19;;;;;;;25.23;9.53;;;;;;;;;;5079016;28;20178;-69
2023/01/31 07:39:45;;;;;;;26.60;10.47;;;;;;;;;;5079308;28;20181;-70
2023/01/31 07:42:11;;;;;;;36.10;10.60;;;;;;;;;;5078033;28;20694;-70
2023/01/31 07:44:37;;;;;;;29.17;8.87;;;;;;;;;;5078147;28;20185;-71
2023/01/31 07:47:03;;;;;;;24.17;9.67;;;;;;;;;;5077829;28;20190;-70
2023/01/31 07:49:29;;;;;;;27.27;9.07;;;;;;;;;;5080210;28;20185;-70
2023/01/31 07:51:55;;;;;;;29.17;9.70;;;;;;;;;;5078010;28;20201;-71
2023/01/31 07:54:21;;;;;;;25.83;9.57;;;;;;;;;;5079109;28;20251;-70
2023/01/31 07:56:47;;;;;;;25.10;9.53;;;;;;;;;;5082306;28;20184;-69
2023/01/31 07:59:13;;;;;;;23.60;10.03;;;;;;;;;;5081766;28;20529;-70
2023/01/31 08:04:23;;;;;;;27.17;9.33;;;;;;;;;;5077966;28;20193;-70
2023/01/31 08:06:51;;;;;;;32.27;10.07;;;;;;;;;;5078012;28;20656;-71
2023/01/31 08:09:17;;;;;;;30.13;13.37;;;;;;;;;;5076376;28;20643;-69
2023/01/31 08:11:43;;;;;;;39.53;16.00;;;;;;;;;;5077713;28;20264;-70
2023/01/31 08:14:09;;;;;;;40.43;17.40;;;;;;;;;;5077903;28;20669;-70
2023/01/31 08:16:35;;;;;;;32.50;13.37;;;;;;;;;;5077627;28;20717;-70
2023/01/31 08:19:02;;;;;;;30.70;10.80;;;;;;;;;;5085521;28;20182;-70
2023/01/31 08:21:28;;;;;;;25.50;10.27;;;;;;;;;;5096402;28;20215;-70
2023/01/31 08:23:54;;;;;;;24.77;10.00;;;;;;;;;;5096308;28;20174;-72
2023/01/31 08:26:21;;;;;;;24.40;9.60;;;;;;;;;;5082925;28;20185;-70
2023/01/31 08:28:48;;;;;;;27.17;11.20;;;;;;;;;;5079047;28;20725;-70
2023/01/31 08:31:16;;;;;;;24.93;8.63;;;;;;;;;;5077213;28;20228;-70
2023/01/31 08:33:42;;;;;;;32.60;9.67;;;;;;;;;;5076976;28;20658;-71
2023/01/31 08:36:13;;;;;;;26.17;8.93;;;;;;;;;;5076664;28;20213;-72
2023/01/31 08:38:41;;;;;;;26.63;8.90;;;;;;;;;;5076492;28;20181;-70
2023/01/31 08:41:07;;;;;;;28.03;8.40;;;;;;;;;;5077379;28;20198;-70
2023/01/31 08:43:33;;;;;;;19.70;8.43;;;;;;;;;;5078422;28;20602;-71
2023/01/31 08:45:59;;;;;;;24.33;8.97;;;;;;;;;;5076638;28;20549;-70
2023/01/31 08:48:25;;;;;;;26.67;8.13;;;;;;;;;;5077759;28;20189;-70
2023/01/31 08:50:51;;;;;;;28.57;8.47;;;;;;;;;;5077661;28;20212;-70
2023/01/31 08:53:17;;;;;;;31.03;11.47;;;;;;;;;;5076683;28;20181;-70
2023/01/31 08:55:43;;;;;;;25.33;9.40;;;;;;;;;;5076178;28;20228;-70
2023/01/31 08:58:09;;;;;;;28.83;9.40;;;;;;;;;;5074692;28;20535;-69
2023/01/31 09:00:35;;;;;;;28.93;8.83;;;;;;;;;;5075135;28;20714;-70
2023/01/31 09:03:00;;;;;;;31.27;8.70;;;;;;;;;;5076245;28;20177;-70
2023/01/31 09:05:28;;;;;;;23.27;7.93;;;;;;;;;;5075948;28;20182;-70
2023/01/31 09:07:53;;;;;;;26.93;8.33;;;;;;;;;;5075204;28;20185;-70
2023/01/31 09:10:20;;;;;;;29.63;8.87;;;;;;;;;;5076138;28;20550;-70
2023/01/31 09:12:46;;;;;;;28.30;8.27;;;;;;;;;;5076006;28;20178;-70
2023/01/31 09:15:12;;;;;;;25.57;7.83;;;;;;;;;;5075877;28;20204;-70
2023/01/31 09:17:39;;;;;;;23.77;7.80;;;;;;;;;;5076037;28;20541;-70
2023/01/31 09:20:06;;;;;;;25.43;6.83;;;;;;;;;;5074395;28;20181;-69
2023/01/31 09:22:33;;;;;;;23.43;7.37;;;;;;;;;;5075868;28;20193;-70
2023/01/31 09:24:59;;;;;;;20.03;6.57;;;;;;;;;;5076168;28;20638;-70
2023/01/31 09:27:26;;;;;;;29.10;7.37;;;;;;;;;;5074638;28;20659;-70
2023/01/31 09:29:51;;;;;;;25.17;7.07;;;;;;;;;;5075895;28;20178;-70
2023/01/31 09:32:19;;;;;;;22.33;6.70;;;;;;;;;;5073743;28;20721;-70
2023/01/31 09:34:47;;;;;;;17.17;6.93;;;;;;;;;;5073766;28;20206;-70
2023/01/31 09:37:13;;;;;;;23.73;7.57;;;;;;;;;;5074832;28;20177;-70
2023/01/31 09:39:39;;;;;;;19.33;7.00;;;;;;;;;;5074888;28;20177;-70
2023/01/31 09:42:15;;;;;;;23.07;7.40;;;;;;;;;;5073800;28;20605;-70
2023/01/31 09:44:43;;;;;;;22.97;6.90;;;;;;;;;;5075206;28;20241;-70
2023/01/31 09:47:30;;;;;;;46.00;20.03;;;;;;;;;;5075102;28;20552;-70
2023/01/31 09:50:02;;;;;;;31.13;13.13;;;;;;;;;;5075015;28;20176;-70
2023/01/31 09:52:30;;;;;;;23.77;8.07;;;;;;;;;;5074919;28;20250;-70
2023/01/31 09:54:56;;;;;;;18.13;9.00;;;;;;;;;;5074631;28;20194;-70
2023/01/31 09:57:22;;;;;;;16.63;6.53;;;;;;;;;;5073433;28;20235;-71
2023/01/31 09:59:49;;;;;;;22.07;6.97;;;;;;;;;;5074392;28;20230;-70
2023/01/31 10:02:27;;;;;;;18.37;6.23;;;;;;;;;;5075163;28;20208;-70
2023/01/31 10:05:06;;;;;;;22.03;6.63;;;;;;;;;;5074634;28;20665;-70
2023/01/31 10:07:36;;;;;;;22.37;7.60;;;;;;;;;;5073225;28;20327;-70
2023/01/31 10:10:17;;;;;;;21.63;7.17;;;;;;;;;;5074658;28;20230;-70
2023/01/31 10:12:45;;;;;;;20.87;6.37;;;;;;;;;;5074755;28;20249;-70
2023/01/31 10:15:12;;;;;;;22.97;6.83;;;;;;;;;;5074887;28;20619;-70
2023/01/31 10:17:40;;;;;;;18.80;6.80;;;;;;;;;;5074177;28;20190;-70
2023/01/31 10:20:25;;;;;;;20.57;7.37;;;;;;;;;;5074298;28;20174;-69
2023/01/31 10:22:56;;;;;;;18.47;5.93;;;;;;;;;;5073391;28;20646;-70
2023/01/31 10:25:22;;;;;;;21.77;7.93;;;;;;;;;;5074643;28;20162;-70
2023/01/31 10:27:49;;;;;;;25.83;8.17;;;;;;;;;;5073942;28;20180;-70
2023/01/31 10:30:17;;;;;;;18.10;6.60;;;;;;;;;;5074142;28;20185;-69
2023/01/31 10:32:47;;;;;;;17.70;5.83;;;;;;;;;;5074009;28;20547;-69
2023/01/31 10:35:25;;;;;;;20.17;6.90;;;;;;;;;;5072408;28;20214;-70
2023/01/31 10:37:54;;;;;;;21.63;5.53;;;;;;;;;;5072368;28;20228;-71
2023/01/31 10:40:32;;;;;;;23.37;7.93;;;;;;;;;;5073657;28;20639;-71
2023/01/31 10:43:09;;;;;;;13.23;6.13;;;;;;;;;;5074284;28;20178;-70
2023/01/31 10:45:37;;;;;;;19.93;6.23;;;;;;;;;;5072474;28;20177;-70
2023/01/31 10:48:25;;;;;;;19.40;7.70;;;;;;;;;;5072862;28;20182;-71
2023/01/31 10:50:52;;;;;;;19.70;7.07;;;;;;;;;;5074293;28;20276;-71
2023/01/31 10:53:36;;;;;;;20.70;6.30;;;;;;;;;;5072784;28;20177;-70
2023/01/31 10:56:21;;;;;;;14.63;6.23;;;;;;;;;;5074446;28;20251;-71
2023/01/31 10:58:47;;;;;;;23.60;7.47;;;;;;;;;;5073927;28;20204;-70
2023/01/31 11:01:14;;;;;;;20.07;7.07;;;;;;;;;;5072598;28;20197;-70
2023/01/31 11:03:44;;;;;;;14.47;6.70;;;;;;;;;;5073557;28;20172;-70
2023/01/31 11:06:11;;;;;;;17.00;6.97;;;;;;;;;;5074127;28;20516;-68
2023/01/31 11:08:44;;;;;;;22.67;7.23;;;;;;;;;;5074005;28;20554;-70
2023/01/31 11:11:15;;;;;;;23.73;8.03;;;;;;;;;;5072286;28;20613;-70
2023/01/31 11:13:55;;;;;;;16.63;7.80;;;;;;;;;;5074220;28;20517;-70
2023/01/31 11:16:21;;;;;;;23.00;7.47;;;;;;;;;;5072986;28;20208;-70
2023/01/31 11:18:48;;;;;;;19.00;7.53;;;;;;;;;;5074249;28;20177;-70
2023/01/31 11:21:25;;;;;;;21.27;7.93;;;;;;;;;;5074226;28;20197;-70
2023/01/31 11:23:52;;;;;;;20.43;8.07;;;;;;;;;;5075374;28;20294;-69
2023/01/31 11:26:29;;;;;;;28.50;8.87;;;;;;;;;;5086408;28;20185;-69
2023/01/31 11:28:55;;;;;;;16.43;7.43;;;;;;;;;;5083354;28;20251;-69
2023/01/31 11:31:27;;;;;;;16.83;8.50;;;;;;;;;;5083992;28;20217;-70
2023/01/31 11:34:04;;;;;;;33.07;14.83;;;;;;;;;;5080126;28;20178;-69
2023/01/31 11:36:40;;;;;;;22.53;10.37;;;;;;;;;;5078140;28;20546;-70
2023/01/31 11:39:25;;;;;;;27.07;11.60;;;;;;;;;;5077302;28;20177;-70
2023/01/31 11:41:51;;;;;;;21.20;8.57;;;;;;;;;;5088159;22;20283;-72
2023/01/31 11:44:19;;;;;;;20.87;9.27;;;;;;;;;;5041347;28;20184;-73
2023/01/31 11:46:53;;;;;;;18.63;9.20;;;;;;;;;;5041740;28;20612;-73
2023/01/31 11:49:22;;;;;;;19.33;8.33;;;;;;;;;;5042110;28;20173;-72
2023/01/31 11:51:48;;;;;;;29.03;8.67;;;;;;;;;;5045396;28;20197;-72
2023/01/31 11:54:19;;;;;;;18.13;8.77;;;;;;;;;;5067389;28;20230;-72
2023/01/31 11:56:46;;;;;;;15.97;8.43;;;;;;;;;;5061445;28;20170;-72
2023/01/31 11:59:14;;;;;;;19.90;8.80;;;;;;;;;;5062930;28;20257;-73
2023/01/31 12:01:48;;;;;;;22.40;8.63;;;;;;;;;;5058675;28;20289;-73
2023/01/31 12:04:25;;;;;;;20.07;8.63;;;;;;;;;;5059241;28;20174;-72
2023/01/31 12:06:56;;;;;;;19.40;8.90;;;;;;;;;;5040341;28;20695;-73
2023/01/31 12:09:24;;;;;;;27.87;9.73;;;;;;;;;;5058799;28;20220;-72
2023/01/31 12:12:05;;;;;;;21.17;10.60;;;;;;;;;;5058607;28;20199;-74
2023/01/31 12:14:41;;;;;;;27.33;8.73;;;;;;;;;;5058622;28;20186;-72
2023/01/31 12:17:17;;;;;;;19.30;8.73;;;;;;;;;;5040706;28;20185;-71
2023/01/31 12:19:50;;;;;;;23.67;9.47;;;;;;;;;;5058394;28;20197;-73
2023/01/31 12:22:22;;;;;;;22.27;9.60;;;;;;;;;;5039823;28;20201;-74
2023/01/31 12:25:02;;;;;;;17.53;8.93;;;;;;;;;;5057730;28;20186;-72
2023/01/31 12:27:28;;;;;;;34.40;12.13;;;;;;;;;;5058278;28;20173;-71
2023/01/31 12:30:00;;;;;;;22.30;9.43;;;;;;;;;;5057749;28;20648;-73
2023/01/31 12:32:43;;;;;;;21.10;10.30;;;;;;;;;;5039779;28;20603;-71
2023/01/31 12:35:21;;;;;;;20.87;10.17;;;;;;;;;;5058136;28;20193;-73
2023/01/31 12:37:57;;;;;;;25.83;10.13;;;;;;;;;;5057983;28;20640;-71
2023/01/31 12:40:38;;;;;;;22.00;10.27;;;;;;;;;;5040198;28;20170;-73
2023/01/31 12:43:12;;;;;;;19.93;10.30;;;;;;;;;;5040114;28;20293;-72
2023/01/31 12:45:40;;;;;;;21.13;9.10;;;;;;;;;;5040545;28;20546;-71
2023/01/31 12:48:10;;;;;;;20.60;9.57;;;;;;;;;;5039666;28;20179;-71
2023/01/31 12:50:56;;;;;;;27.20;10.97;;;;;;;;;;5038829;28;20182;-71
2023/01/31 12:53:34;;;;;;;24.20;9.33;;;;;;;;;;4999177;28;20225;-71
2023/01/31 12:56:15;;;;;;;18.90;7.97;;;;;;;;;;5056877;28;20198;-70
2023/01/31 12:58:44;;;;;;;18.50;9.87;;;;;;;;;;5057227;28;20206;-72
2023/01/31 13:01:14;;;;;;;21.27;10.23;;;;;;;;;;5038791;28;20198;-71
2023/01/31 13:03:50;;;;;;;21.30;9.37;;;;;;;;;;5056769;28;20231;-72
2023/01/31 13:06:25;;;;;;;22.90;9.90;;;;;;;;;;5056991;28;20170;-71
2023/01/31 13:08:54;;;;;;;26.30;9.17;;;;;;;;;;5056221;28;20174;-71
2023/01/31 13:11:28;;;;;;;21.63;10.00;;;;;;;;;;5057038;28;20679;-73
2023/01/31 13:13:57;;;;;;;22.87;10.70;;;;;;;;;;5056731;28;20189;-71
2023/01/31 13:16:29;;;;;;;23.33;12.20;;;;;;;;;;5056556;28;20218;-70
2023/01/31 13:18:57;;;;;;;28.80;12.80;;;;;;;;;;5056625;28;20557;-73
2023/01/31 13:21:26;;;;;;;32.73;13.10;;;;;;;;;;5056633;28;20194;-73
2023/01/31 13:24:12;;;;;;;27.97;12.87;;;;;;;;;;5057267;28;20671;-70
2023/01/31 13:26:43;;;;;;;30.17;13.90;;;;;;;;;;5056386;28;20259;-70
2023/01/31 13:29:27;;;;;;;26.50;13.63;;;;;;;;;;5056547;28;20189;-70
2023/01/31 13:31:59;;;;;;;25.17;14.13;;;;;;;;;;5057283;28;20194;-70
2023/01/31 13:34:36;;;;;;;31.23;13.67;;;;;;;;;;5038505;28;20229;-73
2023/01/31 13:37:05;;;;;;;33.07;15.07;;;;;;;;;;5037992;28;20621;-71
2023/01/31 13:39:46;;;;;;;28.00;14.13;;;;;;;;;;5056286;28;20174;-70
2023/01/31 13:42:14;;;;;;;30.47;15.30;;;;;;;;;;5037671;28;20218;-72
2023/01/31 13:44:40;;;;;;;27.57;14.83;;;;;;;;;;5055842;28;20189;-70
2023/01/31 13:47:19;;;;;;;28.60;16.27;;;;;;;;;;5038237;28;20190;-71
2023/01/31 13:49:51;;;;;;;25.60;15.37;;;;;;;;;;5037836;28;20185;-73
2023/01/31 13:52:19;;;;;;;31.23;17.80;;;;;;;;;;5055693;28;20202;-72
2023/01/31 13:54:48;;;;;;;26.50;16.23;;;;;;;;;;5037623;28;20207;-72
2023/01/31 13:57:23;;;;;;;34.70;17.67;;;;;;;;;;5057216;28;20179;-72
2023/01/31 14:00:03;;;;;;;33.03;17.97;;;;;;;;;;5042810;28;20548;-72
2023/01/31 14:02:30;;;;;;;38.10;17.23;;;;;;;;;;5060847;28;20253;-69
2023/01/31 14:05:04;;;;;;;29.97;16.47;;;;;;;;;;5043845;28;20240;-72
2023/01/31 14:07:30;;;;;;;27.10;16.73;;;;;;;;;;5044023;28;20177;-71
2023/01/31 14:09:56;;;;;;;27.43;17.07;;;;;;;;;;5042992;28;20178;-71
2023/01/31 14:12:22;;;;;;;26.53;18.10;;;;;;;;;;5043910;28;20225;-71
2023/01/31 14:14:52;;;;;;;32.93;19.50;;;;;;;;;;5042387;28;20198;-71
2023/01/31 14:17:21;;;;;;;36.47;20.17;;;;;;;;;;5042951;28;20182;-72
2023/01/31 14:19:50;;;;;;;29.67;21.33;;;;;;;;;;5059730;28;20211;-71
2023/01/31 14:22:20;;;;;;;35.90;21.03;;;;;;;;;;5042143;28;20202;-71
2023/01/31 14:24:51;;;;;;;31.40;19.07;;;;;;;;;;5057304;28;20240;-71
2023/01/31 14:27:35;;;;;;;32.07;18.27;;;;;;;;;;5038192;28;20174;-73
2023/01/31 14:30:07;;;;;;;27.33;17.43;;;;;;;;;;5055075;28;20189;-71
2023/01/31 14:32:34;;;;;;;22.77;16.33;;;;;;;;;;5055505;28;20707;-71
2023/01/31 14:35:07;;;;;;;27.30;17.90;;;;;;;;;;5055531;28;20286;-70
2023/01/31 14:37:42;;;;;;;26.50;18.67;;;;;;;;;;5055477;28;20173;-70
2023/01/31 14:40:23;;;;;;;28.00;20.07;;;;;;;;;;5055453;28;20624;-73
2023/01/31 14:42:55;;;;;;;23.97;19.43;;;;;;;;;;5037275;28;20217;-71
2023/01/31 14:45:35;;;;;;;29.40;20.70;;;;;;;;;;5055731;28;20188;-74